Time;durP1;ratioP1;P1;durP2;ratioP2;P2;SDS_P1;SDS_P2;PMS_P1;PMS_P2;Temp;Humidity;BMP_temperature;BMP_pressure;BME280_temperature;BME280_humidity;BME280_pressure;Samples;Min_cycle;Max_cycle;Signal;HPM_P1;HPM_P2
2020/12/10 00:00:13;;;;;;;23.13;15.43;;;5.10;99.90;;;;;;5112172;28;20721;-62
2020/12/10 00:02:39;;;;;;;20.90;14.87;;;5.10;99.90;;;;;;5112595;28;20211;-59
2020/12/10 00:05:07;;;;;;;21.13;14.57;;;5.00;99.90;;;;;;5111861;28;20694;-60
2020/12/10 00:07:35;;;;;;;22.47;15.37;;;5.10;99.90;;;;;;5111854;28;20203;-61
2020/12/10 00:10:02;;;;;;;22.27;14.77;;;5.10;99.90;;;;;;5111920;28;20223;-60
2020/12/10 00:12:28;;;;;;;22.40;14.93;;;5.10;99.90;;;;;;5112179;28;20204;-62
2020/12/10 00:14:54;;;;;;;21.63;15.40;;;5.10;99.90;;;;;;5112009;28;20204;-61
2020/12/10 00:17:25;;;;;;;21.83;15.50;;;5.20;99.90;;;;;;5111915;28;20226;-62
2020/12/10 00:19:51;;;;;;;21.63;15.17;;;5.20;99.90;;;;;;5111448;28;20228;-60
2020/12/10 00:22:17;;;;;;;21.90;15.77;;;5.20;99.90;;;;;;5112013;28;20215;-60
2020/12/10 00:24:44;;;;;;;21.67;14.83;;;5.20;99.90;;;;;;5111703;28;20203;-60
2020/12/10 00:27:11;;;;;;;22.10;16.17;;;5.20;99.90;;;;;;5111864;28;20577;-61
2020/12/10 00:29:37;;;;;;;22.07;15.57;;;5.20;99.90;;;;;;5111166;28;20328;-60
2020/12/10 00:32:03;;;;;;;23.30;16.07;;;5.20;99.90;;;;;;5112262;28;20616;-61
2020/12/10 00:34:29;;;;;;;22.23;16.67;;;5.20;99.90;;;;;;5111872;28;20195;-61
2020/12/10 00:36:57;;;;;;;23.27;16.00;;;5.20;99.90;;;;;;5111695;28;20199;-61
2020/12/10 00:39:23;;;;;;;22.20;15.10;;;5.30;99.90;;;;;;5111829;28;20228;-61
2020/12/10 00:41:54;;;;;;;24.43;16.20;;;5.30;99.90;;;;;;5112435;28;20220;-59
2020/12/10 00:44:20;;;;;;;25.13;15.80;;;5.30;99.90;;;;;;5112465;28;20203;-60
2020/12/10 00:46:46;;;;;;;21.63;15.90;;;5.30;99.90;;;;;;5111556;28;20203;-60
2020/12/10 00:49:12;;;;;;;23.23;15.03;;;5.30;99.90;;;;;;5111084;28;20219;-60
2020/12/10 00:51:38;;;;;;;24.60;16.07;;;5.30;99.90;;;;;;5111699;28;20418;-60
2020/12/10 00:54:05;;;;;;;23.13;15.67;;;5.20;99.90;;;;;;5111118;28;20212;-62
2020/12/10 00:56:34;;;;;;;24.50;16.20;;;5.20;99.90;;;;;;5111572;28;20208;-62
2020/12/10 00:59:02;;;;;;;21.80;15.10;;;5.20;99.90;;;;;;5111018;28;20262;-60
2020/12/10 01:01:28;;;;;;;22.30;14.97;;;5.20;99.90;;;;;;5111224;28;20226;-61
2020/12/10 01:03:54;;;;;;;23.87;15.77;;;5.20;99.90;;;;;;5111055;28;20204;-60
2020/12/10 01:06:20;;;;;;;22.87;15.83;;;5.20;99.90;;;;;;5111472;28;20203;-60
2020/12/10 01:08:46;;;;;;;22.00;14.87;;;5.10;99.90;;;;;;5111114;28;20204;-60
2020/12/10 01:11:13;;;;;;;21.93;15.00;;;5.10;99.90;;;;;;5111761;28;20693;-60
2020/12/10 01:13:39;;;;;;;23.10;15.80;;;4.90;99.90;;;;;;5111457;28;20386;-60
2020/12/10 01:16:06;;;;;;;23.70;15.40;;;4.70;99.90;;;;;;5111514;28;20203;-65
2020/12/10 01:18:32;;;;;;;22.40;15.43;;;4.60;99.90;;;;;;5111405;28;20211;-60
2020/12/10 01:20:58;;;;;;;24.73;15.73;;;4.60;99.90;;;;;;5111436;28;20231;-60
2020/12/10 01:23:25;;;;;;;25.43;15.70;;;4.60;99.90;;;;;;5111285;28;20210;-61
2020/12/10 01:25:51;;;;;;;25.03;15.77;;;4.70;99.90;;;;;;5111370;28;20214;-62
2020/12/10 01:28:17;;;;;;;20.37;13.90;;;4.80;99.90;;;;;;5111023;28;20256;-61
2020/12/10 01:30:43;;;;;;;24.30;15.67;;;4.80;99.90;;;;;;5110916;28;20219;-61
2020/12/10 01:33:11;;;;;;;24.43;16.67;;;4.90;99.90;;;;;;5111275;28;20212;-60
2020/12/10 01:35:37;;;;;;;19.90;15.03;;;4.90;99.90;;;;;;5110838;28;20313;-61
2020/12/10 01:38:03;;;;;;;22.03;15.40;;;4.90;99.90;;;;;;5110871;28;20595;-61
2020/12/10 01:40:29;;;;;;;20.60;14.27;;;4.90;99.90;;;;;;5110925;28;20238;-61
2020/12/10 01:42:55;;;;;;;24.67;15.13;;;4.90;99.90;;;;;;5114475;28;20214;-61
2020/12/10 01:45:22;;;;;;;20.67;14.57;;;4.80;99.90;;;;;;5114604;28;20282;-60
2020/12/10 01:47:48;;;;;;;20.80;14.90;;;4.70;99.90;;;;;;5114358;28;20667;-60
2020/12/10 01:50:15;;;;;;;22.33;14.73;;;4.70;99.90;;;;;;5114977;28;20231;-60
2020/12/10 01:52:41;;;;;;;22.07;14.70;;;4.70;99.90;;;;;;5114793;28;20205;-61
2020/12/10 01:55:07;;;;;;;22.20;15.33;;;4.70;99.90;;;;;;5114270;28;20203;-63
2020/12/10 01:57:33;;;;;;;21.33;15.07;;;4.60;99.90;;;;;;5114596;28;20208;-60
2020/12/10 02:00:00;;;;;;;23.23;14.80;;;4.60;99.90;;;;;;5114158;28;20261;-61
2020/12/10 02:02:26;;;;;;;23.03;15.33;;;4.60;99.90;;;;;;5114841;28;20227;-61
2020/12/10 02:04:53;;;;;;;21.93;14.77;;;4.70;99.90;;;;;;5114280;28;20240;-61
2020/12/10 02:07:20;;;;;;;20.40;14.07;;;4.70;99.90;;;;;;5114547;28;20199;-61
2020/12/10 02:09:46;;;;;;;21.67;14.13;;;4.70;99.90;;;;;;5114284;28;20228;-61
2020/12/10 02:12:12;;;;;;;25.83;14.73;;;4.80;99.90;;;;;;5114230;28;20603;-60
2020/12/10 02:14:38;;;;;;;20.83;13.93;;;4.80;99.90;;;;;;5114161;28;20243;-60
2020/12/10 02:17:07;;;;;;;20.60;14.33;;;4.80;99.90;;;;;;5114525;28;20230;-61
2020/12/10 02:19:33;;;;;;;20.97;14.20;;;4.70;99.90;;;;;;5114008;28;20715;-61
2020/12/10 02:22:00;;;;;;;19.40;14.03;;;4.70;99.90;;;;;;5114311;28;20227;-61
2020/12/10 02:24:27;;;;;;;20.13;14.17;;;4.70;99.90;;;;;;5114471;28;20860;-61
2020/12/10 02:26:53;;;;;;;19.43;13.33;;;4.70;99.90;;;;;;5114393;28;20206;-61
2020/12/10 02:29:20;;;;;;;18.13;12.70;;;4.70;99.90;;;;;;5113623;28;20231;-61
2020/12/10 02:31:47;;;;;;;21.23;14.10;;;4.70;99.90;;;;;;5114337;28;20196;-61
2020/12/10 02:34:14;;;;;;;18.80;12.77;;;4.70;99.90;;;;;;5113769;28;20214;-61
2020/12/10 02:36:40;;;;;;;20.30;13.70;;;4.70;99.90;;;;;;5114342;28;20697;-61
2020/12/10 02:39:08;;;;;;;19.40;13.73;;;4.70;99.90;;;;;;5114082;28;20226;-61
2020/12/10 02:41:36;;;;;;;20.57;14.53;;;4.70;99.90;;;;;;5113955;28;20227;-61
2020/12/10 02:44:03;;;;;;;19.97;13.80;;;4.80;99.90;;;;;;5113483;28;20279;-61
2020/12/10 02:46:29;;;;;;;19.87;13.97;;;4.80;99.90;;;;;;5113840;28;20263;-61
2020/12/10 02:48:55;;;;;;;20.63;14.97;;;4.90;99.90;;;;;;5113629;28;20224;-60
2020/12/10 02:51:21;;;;;;;21.53;14.90;;;4.90;99.90;;;;;;5113695;28;20207;-60
2020/12/10 02:53:48;;;;;;;21.17;14.50;;;4.90;99.90;;;;;;5113022;28;20199;-61
2020/12/10 02:56:16;;;;;;;21.30;14.63;;;4.70;99.90;;;;;;5113454;28;20200;-61
2020/12/10 02:58:44;;;;;;;18.33;13.77;;;4.60;99.90;;;;;;5113239;28;20214;-61
2020/12/10 03:01:10;;;;;;;18.83;13.80;;;4.50;99.90;;;;;;5134181;22;20284;-63
2020/12/10 03:03:37;;;;;;;20.13;14.37;;;4.50;99.90;;;;;;5112927;28;20289;-62
2020/12/10 03:06:04;;;;;;;22.40;14.80;;;4.50;99.90;;;;;;5113193;28;20495;-62
2020/12/10 03:08:31;;;;;;;21.53;14.40;;;4.60;99.90;;;;;;5112613;28;20429;-62
2020/12/10 03:10:57;;;;;;;22.60;14.90;;;4.60;99.90;;;;;;5112834;28;20718;-62
2020/12/10 03:13:23;;;;;;;22.40;14.47;;;4.70;99.90;;;;;;5112735;28;20203;-63
2020/12/10 03:15:51;;;;;;;20.40;14.50;;;4.70;99.90;;;;;;5112910;28;20208;-62
2020/12/10 03:18:17;;;;;;;20.83;14.27;;;4.70;99.90;;;;;;5112497;28;20203;-63
2020/12/10 03:20:43;;;;;;;20.97;14.00;;;4.80;99.90;;;;;;5112346;28;20961;-63
2020/12/10 03:23:09;;;;;;;22.70;14.93;;;4.80;99.90;;;;;;5112535;28;20211;-62
2020/12/10 03:25:35;;;;;;;20.00;13.87;;;4.80;99.90;;;;;;5112221;28;20635;-63
2020/12/10 03:28:02;;;;;;;21.47;15.17;;;4.80;99.90;;;;;;5112440;28;20431;-62
2020/12/10 03:30:28;;;;;;;21.07;14.43;;;4.80;99.90;;;;;;5112768;28;20219;-63
2020/12/10 03:32:55;;;;;;;20.87;14.37;;;4.80;99.90;;;;;;5112590;28;20200;-63
2020/12/10 03:35:21;;;;;;;20.03;13.60;;;4.70;99.90;;;;;;5112196;28;20234;-62
2020/12/10 03:37:47;;;;;;;21.93;14.33;;;4.70;99.90;;;;;;5112502;28;20615;-63
2020/12/10 03:40:13;;;;;;;21.47;13.93;;;4.70;99.90;;;;;;5112444;28;20288;-62
2020/12/10 03:42:39;;;;;;;22.20;14.30;;;4.80;99.90;;;;;;5112246;28;20234;-63
2020/12/10 03:45:06;;;;;;;20.00;14.13;;;4.80;99.90;;;;;;5111978;28;20262;-63
2020/12/10 03:47:32;;;;;;;17.90;12.90;;;4.80;99.90;;;;;;5112205;28;20207;-63
2020/12/10 03:50:00;;;;;;;19.67;13.70;;;4.80;99.90;;;;;;5111778;28;20706;-63
2020/12/10 03:52:26;;;;;;;22.23;14.90;;;4.80;99.90;;;;;;5112436;28;20551;-63
2020/12/10 03:54:52;;;;;;;19.77;14.13;;;4.80;99.90;;;;;;5111767;28;20204;-63
2020/12/10 03:57:19;;;;;;;21.20;13.53;;;4.80;99.90;;;;;;5112254;28;20208;-63
2020/12/10 03:59:45;;;;;;;19.80;14.07;;;4.80;99.90;;;;;;5111604;28;20288;-63
2020/12/10 04:02:11;;;;;;;21.10;14.07;;;4.70;99.90;;;;;;5112076;28;20231;-63
2020/12/10 04:04:37;;;;;;;21.43;14.50;;;4.70;99.90;;;;;;5110921;28;20677;-63
2020/12/10 04:07:04;;;;;;;23.00;15.90;;;4.70;99.90;;;;;;5111897;28;20620;-63
2020/12/10 04:09:30;;;;;;;20.43;14.17;;;4.70;99.90;;;;;;5111916;28;20231;-63
2020/12/10 04:11:56;;;;;;;21.57;14.63;;;4.70;99.90;;;;;;5111805;28;20742;-63
2020/12/10 04:14:23;;;;;;;21.07;14.20;;;4.70;99.90;;;;;;5111351;28;20226;-63
2020/12/10 04:16:49;;;;;;;21.67;15.17;;;4.80;99.90;;;;;;5111993;28;20207;-63
2020/12/10 04:19:15;;;;;;;20.40;14.13;;;4.80;99.90;;;;;;5111097;28;20203;-63
2020/12/10 04:21:41;;;;;;;20.63;13.83;;;4.80;99.90;;;;;;5111340;28;20227;-63
2020/12/10 04:24:08;;;;;;;20.57;14.20;;;4.80;99.90;;;;;;5111447;28;20218;-63
2020/12/10 04:26:34;;;;;;;20.23;13.90;;;4.80;99.90;;;;;;5111671;28;20585;-63
2020/12/10 04:29:00;;;;;;;20.67;14.43;;;4.80;99.90;;;;;;5111069;28;20284;-63
2020/12/10 04:31:27;;;;;;;20.37;13.57;;;4.80;99.90;;;;;;5112061;28;20208;-63
2020/12/10 04:33:53;;;;;;;19.93;13.63;;;4.80;99.90;;;;;;5111260;28;20209;-63
2020/12/10 04:36:19;;;;;;;18.83;13.20;;;5.30;99.90;;;;;;5111204;28;20679;-63
2020/12/10 04:38:45;;;;;;;18.63;13.03;;;4.80;99.90;;;;;;5111203;28;20219;-63
2020/12/10 04:41:12;;;;;;;19.60;12.97;;;4.80;99.90;;;;;;5111100;28;20866;-63
2020/12/10 04:43:38;;;;;;;21.63;13.33;;;4.70;99.90;;;;;;5111033;28;20203;-63
2020/12/10 04:46:05;;;;;;;22.50;14.83;;;4.70;99.90;;;;;;5111233;28;20210;-63
2020/12/10 04:48:34;;;;;;;22.90;15.43;;;5.20;99.90;;;;;;5110906;28;20705;-61
2020/12/10 04:51:03;;;;;;;21.90;14.90;;;4.70;99.90;;;;;;5111209;28;20695;-62
2020/12/10 04:53:29;;;;;;;23.37;15.30;;;4.70;99.90;;;;;;5111000;28;20210;-61
2020/12/10 04:55:58;;;;;;;20.13;14.40;;;4.70;99.90;;;;;;5111156;28;20203;-62
2020/12/10 04:58:25;;;;;;;18.80;14.03;;;4.60;99.90;;;;;;5110782;28;20200;-61
2020/12/10 05:00:57;;;;;;;19.40;13.63;;;4.50;99.90;;;;;;5111054;28;20243;-61
2020/12/10 05:03:23;;;;;;;21.97;15.27;;;4.30;99.90;;;;;;5110490;28;20260;-61
2020/12/10 05:05:50;;;;;;;21.23;13.83;;;4.30;99.90;;;;;;5110995;28;20242;-61
2020/12/10 05:08:29;;;;;;;20.90;14.50;;;4.40;99.90;;;;;;5110687;28;20214;-62
2020/12/10 05:10:55;;;;;;;24.40;15.93;;;4.40;99.90;;;;;;5110970;28;20231;-62
2020/12/10 05:13:21;;;;;;;20.87;14.17;;;4.40;99.90;;;;;;5110766;28;20592;-61
2020/12/10 05:15:49;;;;;;;22.37;15.30;;;4.40;99.90;;;;;;5112576;28;20203;-61
2020/12/10 05:18:16;;;;;;;20.50;14.67;;;4.30;99.90;;;;;;5115102;28;20208;-61
2020/12/10 05:20:45;;;;;;;20.73;13.93;;;4.30;99.90;;;;;;5115057;28;20231;-62
2020/12/10 05:23:12;;;;;;;23.30;15.63;;;4.20;99.90;;;;;;5115118;28;20203;-61
2020/12/10 05:25:46;;;;;;;20.67;13.90;;;4.10;99.90;;;;;;5114866;28;20694;-61
2020/12/10 05:28:12;;;;;;;20.13;14.30;;;3.90;99.90;;;;;;5114529;28;20207;-61
2020/12/10 05:30:38;;;;;;;23.57;15.43;;;3.80;99.90;;;;;;5114989;28;20254;-61
2020/12/10 05:33:10;;;;;;;22.47;14.27;;;3.80;99.90;;;;;;5115060;28;20206;-63
2020/12/10 05:35:37;;;;;;;22.13;14.20;;;3.90;99.90;;;;;;5114550;28;20230;-63
2020/12/10 05:38:09;;;;;;;19.93;14.07;;;4.00;99.90;;;;;;5114581;28;20683;-63
2020/12/10 05:40:35;;;;;;;26.60;17.40;;;4.00;99.90;;;;;;5114588;28;20219;-63
2020/12/10 05:43:02;;;;;;;18.00;12.00;;;4.00;99.90;;;;;;5114861;28;20211;-63
2020/12/10 05:45:28;;;;;;;21.17;13.60;;;4.10;99.90;;;;;;5114542;28;20215;-62
2020/12/10 05:47:56;;;;;;;20.50;14.00;;;4.00;99.90;;;;;;5114625;28;20214;-63
2020/12/10 05:50:25;;;;;;;20.47;13.20;;;3.90;99.90;;;;;;5114764;28;20231;-63
2020/12/10 05:53:04;;;;;;;18.23;13.17;;;3.90;99.90;;;;;;5114612;28;20385;-61
2020/12/10 05:55:30;;;;;;;22.13;14.13;;;3.90;99.90;;;;;;5114246;28;20188;-61
2020/12/10 05:57:57;;;;;;;21.40;14.07;;;3.90;99.90;;;;;;5114214;28;20214;-61
2020/12/10 06:00:23;;;;;;;19.40;14.30;;;3.90;99.90;;;;;;5114166;28;20231;-61
2020/12/10 06:02:50;;;;;;;22.43;13.97;;;4.00;99.90;;;;;;5114027;28;20227;-62
2020/12/10 06:05:18;;;;;;;19.13;13.93;;;4.00;99.90;;;;;;5115063;28;20238;-62
2020/12/10 06:08:05;;;;;;;24.07;15.60;;;3.90;99.90;;;;;;5114293;28;20203;-61
2020/12/10 06:10:36;;;;;;;21.73;15.00;;;3.90;99.90;;;;;;5114671;28;20227;-63
2020/12/10 06:13:03;;;;;;;24.03;15.00;;;3.90;99.90;;;;;;5114237;28;20200;-63
2020/12/10 06:15:32;;;;;;;22.23;13.97;;;3.90;99.90;;;;;;5114084;28;20211;-61
2020/12/10 06:18:03;;;;;;;24.03;13.73;;;3.90;99.90;;;;;;5113991;28;20231;-61
2020/12/10 06:20:33;;;;;;;22.13;14.60;;;3.80;99.90;;;;;;5113770;28;20230;-61
2020/12/10 06:23:32;;;;;;;19.43;14.10;;;3.80;99.90;;;;;;5113911;28;20227;-61
2020/12/10 06:26:20;;;;;;;21.60;14.57;;;3.90;99.90;;;;;;5114114;28;20298;-61
2020/12/10 06:28:46;;;;;;;21.93;14.83;;;3.90;99.90;;;;;;5112348;28;20207;-61
2020/12/10 06:31:13;;;;;;;21.57;14.37;;;4.00;99.90;;;;;;5113719;28;20219;-61
2020/12/10 06:33:40;;;;;;;23.83;15.40;;;4.10;99.90;;;;;;5113302;28;20295;-61
2020/12/10 06:36:23;;;;;;;20.90;14.87;;;4.10;99.90;;;;;;5113780;28;20211;-62
2020/12/10 06:38:51;;;;;;;22.20;14.07;;;4.10;99.90;;;;;;5114002;28;20223;-61
2020/12/10 06:41:18;;;;;;;22.50;15.03;;;4.10;99.90;;;;;;5113557;28;20292;-62
2020/12/10 06:43:44;;;;;;;22.87;14.33;;;4.10;99.90;;;;;;5114358;28;20200;-63
2020/12/10 06:46:10;;;;;;;21.13;14.20;;;4.10;99.90;;;;;;5114684;28;20207;-61
2020/12/10 06:48:41;;;;;;;25.37;15.80;;;4.10;99.90;;;;;;5114238;28;20611;-64
2020/12/10 06:51:12;;;;;;;21.10;15.10;;;4.00;99.90;;;;;;5113427;28;20228;-62
2020/12/10 06:53:38;;;;;;;21.63;14.60;;;4.00;99.90;;;;;;5113252;28;20207;-61
2020/12/10 06:56:08;;;;;;;24.23;15.70;;;4.20;99.90;;;;;;5115154;28;20208;-61
2020/12/10 06:58:56;;;;;;;26.33;15.47;;;4.20;99.90;;;;;;5114540;28;20211;-61
2020/12/10 07:01:24;;;;;;;25.47;17.23;;;4.20;99.90;;;;;;5114030;28;20322;-61
2020/12/10 07:03:53;;;;;;;23.00;15.53;;;4.30;99.90;;;;;;5113601;28;20235;-62
2020/12/10 07:06:20;;;;;;;22.83;15.07;;;4.30;99.90;;;;;;5113875;28;20219;-61
2020/12/10 07:09:03;;;;;;;22.83;14.33;;;4.40;99.90;;;;;;5114434;28;20298;-61
2020/12/10 07:11:32;;;;;;;23.97;16.47;;;4.30;99.90;;;;;;5114322;28;20608;-61
2020/12/10 07:13:59;;;;;;;24.00;15.27;;;4.20;99.90;;;;;;5113113;28;20204;-61
2020/12/10 07:16:32;;;;;;;24.03;16.83;;;4.20;99.90;;;;;;5113019;28;20207;-61
2020/12/10 07:18:59;;;;;;;22.47;15.00;;;4.30;99.90;;;;;;5112884;28;20199;-62
2020/12/10 07:21:25;;;;;;;22.00;15.13;;;4.40;99.90;;;;;;5113014;28;20250;-62
2020/12/10 07:23:52;;;;;;;22.87;15.73;;;4.50;99.90;;;;;;5112636;28;20639;-62
2020/12/10 07:26:18;;;;;;;23.63;16.70;;;4.50;99.90;;;;;;5112916;28;20203;-62
2020/12/10 07:28:47;;;;;;;22.43;15.87;;;4.50;99.90;;;;;;5115014;28;20203;-62
2020/12/10 07:31:15;;;;;;;23.40;15.87;;;4.50;99.90;;;;;;5113596;28;20216;-61
2020/12/10 07:33:42;;;;;;;22.40;15.77;;;4.50;99.90;;;;;;5113918;28;20233;-62
2020/12/10 07:36:08;;;;;;;22.30;15.23;;;4.60;99.90;;;;;;5113769;28;20203;-62
2020/12/10 07:38:35;;;;;;;21.33;14.97;;;4.60;99.90;;;;;;5113130;28;20218;-62
2020/12/10 07:41:01;;;;;;;25.53;15.53;;;4.50;99.90;;;;;;5114377;28;20227;-62
2020/12/10 07:43:27;;;;;;;22.23;14.90;;;4.50;99.90;;;;;;5114206;28;20203;-61
2020/12/10 07:45:55;;;;;;;22.30;15.07;;;4.50;99.90;;;;;;5114667;28;20208;-62
2020/12/10 07:48:21;;;;;;;22.03;15.03;;;4.50;99.90;;;;;;5114948;28;20203;-63
2020/12/10 07:50:48;;;;;;;23.77;15.23;;;4.40;99.90;;;;;;5113173;28;20238;-62
2020/12/10 07:53:14;;;;;;;22.57;15.60;;;4.30;99.90;;;;;;5112819;28;20206;-62
2020/12/10 07:55:45;;;;;;;20.83;14.77;;;4.30;99.90;;;;;;5112469;28;20207;-63
2020/12/10 07:58:22;;;;;;;24.63;16.33;;;4.30;99.90;;;;;;5111916;28;20667;-63
2020/12/10 08:00:49;;;;;;;25.70;16.23;;;4.30;99.90;;;;;;5112648;28;20734;-62
2020/12/10 08:03:27;;;;;;;26.33;16.93;;;4.30;99.90;;;;;;5112619;28;20234;-62
2020/12/10 08:06:08;;;;;;;26.23;16.10;;;4.30;99.90;;;;;;5112519;28;20746;-62
2020/12/10 08:08:38;;;;;;;23.83;16.10;;;4.40;99.90;;;;;;5111574;28;20262;-62
2020/12/10 08:11:13;;;;;;;25.33;16.73;;;4.40;99.90;;;;;;5112154;28;20326;-62
2020/12/10 08:13:56;;;;;;;27.33;17.20;;;4.40;99.90;;;;;;5111375;28;20235;-62
2020/12/10 08:16:23;;;;;;;29.87;19.03;;;4.20;99.90;;;;;;5111966;28;20226;-62
2020/12/10 08:18:50;;;;;;;25.27;16.23;;;4.20;99.90;;;;;;5111466;28;20212;-62
2020/12/10 08:21:32;;;;;;;26.13;16.07;;;4.10;99.90;;;;;;5111689;28;20579;-61
2020/12/10 08:23:58;;;;;;;26.17;15.70;;;4.10;99.90;;;;;;5111711;28;20203;-64
2020/12/10 08:26:25;;;;;;;25.83;17.02;;;4.20;99.90;;;;;;5107576;28;20476;-63
2020/12/10 08:28:52;;;;;;;24.17;15.63;;;4.30;99.90;;;;;;5112956;28;20208;-62
2020/12/10 08:31:22;;;;;;;24.17;15.97;;;4.30;99.90;;;;;;5112764;28;20691;-63
2020/12/10 08:33:51;;;;;;;28.37;16.67;;;4.30;99.90;;;;;;5112447;28;20203;-63
2020/12/10 08:36:31;;;;;;;28.37;16.40;;;4.40;99.90;;;;;;5112393;28;20277;-63
2020/12/10 08:38:59;;;;;;;25.17;15.93;;;4.50;99.90;;;;;;5112415;28;20210;-63
2020/12/10 08:41:27;;;;;;;23.43;15.67;;;4.60;99.90;;;;;;5112662;28;20634;-63
2020/12/10 08:43:55;;;;;;;26.10;16.80;;;4.70;99.90;;;;;;5112071;28;20199;-64
2020/12/10 08:46:21;;;;;;;25.67;15.40;;;4.80;99.90;;;;;;5111696;28;20203;-62
2020/12/10 08:48:47;;;;;;;25.20;16.37;;;4.80;99.90;;;;;;5111443;28;20200;-63
2020/12/10 08:51:14;;;;;;;22.30;15.03;;;4.80;99.90;;;;;;5111312;28;20686;-63
2020/12/10 08:53:48;;;;;;;23.90;15.67;;;4.90;99.90;;;;;;5103466;28;20211;-66
2020/12/10 08:56:20;;;;;;;25.73;15.67;;;4.90;99.90;;;;;;5091705;28;20257;-64
2020/12/10 08:58:46;;;;;;;24.87;15.73;;;5.00;99.90;;;;;;5091110;28;20214;-65
2020/12/10 09:01:13;;;;;;;25.00;14.33;;;5.10;99.90;;;;;;5127976;22;20236;-62
2020/12/10 09:03:39;;;;;;;23.33;15.40;;;5.20;99.90;;;;;;5111207;28;20571;-62
2020/12/10 09:06:05;;;;;;;25.67;15.67;;;5.30;99.90;;;;;;5111242;28;20214;-62
2020/12/10 09:08:32;;;;;;;21.53;14.27;;;5.40;99.90;;;;;;5111077;28;20207;-62
2020/12/10 09:10:59;;;;;;;22.80;14.80;;;5.50;99.90;;;;;;5111367;28;20220;-62
2020/12/10 09:13:25;;;;;;;25.80;14.80;;;5.50;99.90;;;;;;5111027;28;20203;-62
2020/12/10 09:15:51;;;;;;;25.70;17.30;;;5.60;99.90;;;;;;5111098;28;20203;-63
2020/12/10 09:18:18;;;;;;;23.20;15.07;;;5.50;99.90;;;;;;5111208;28;20227;-63
2020/12/10 09:20:44;;;;;;;20.53;13.50;;;5.50;99.90;;;;;;5111077;28;20235;-63
2020/12/10 09:23:11;;;;;;;21.67;14.03;;;5.50;99.90;;;;;;5111050;28;20223;-63
2020/12/10 09:25:38;;;;;;;18.20;12.70;;;5.60;99.90;;;;;;5110736;28;20215;-63
2020/12/10 09:28:06;;;;;;;20.70;12.87;;;5.60;99.90;;;;;;5110782;28;20245;-64
2020/12/10 09:30:32;;;;;;;21.23;13.70;;;5.70;99.90;;;;;;5111580;28;20223;-63
2020/12/10 09:32:58;;;;;;;22.13;13.33;;;5.60;99.90;;;;;;5111133;28;20196;-63
2020/12/10 09:35:25;;;;;;;18.90;11.70;;;5.50;99.90;;;;;;5110564;28;20663;-61
2020/12/10 09:37:51;;;;;;;16.53;11.70;;;5.30;99.90;;;;;;5110711;28;20210;-62
2020/12/10 09:40:17;;;;;;;17.30;11.93;;;5.20;99.90;;;;;;5110885;28;20227;-62
2020/12/10 09:42:46;;;;;;;19.73;12.83;;;5.20;99.90;;;;;;5110965;28;20228;-61
2020/12/10 09:45:12;;;;;;;20.97;14.00;;;5.30;99.90;;;;;;5110725;28;20231;-61
2020/12/10 09:47:41;;;;;;;19.80;13.30;;;5.10;99.90;;;;;;5110598;28;20207;-62
2020/12/10 09:50:07;;;;;;;16.33;10.30;;;5.10;99.90;;;;;;5110613;28;20227;-62
2020/12/10 09:52:37;;;;;;;17.23;11.33;;;5.00;99.90;;;;;;5110585;28;20675;-61
2020/12/10 09:55:09;;;;;;;19.20;12.37;;;5.10;99.90;;;;;;5110400;28;20230;-61
2020/12/10 09:57:35;;;;;;;20.97;13.27;;;5.10;99.90;;;;;;5111001;28;20233;-61
2020/12/10 10:00:06;;;;;;;19.53;12.47;;;4.90;99.90;;;;;;5110619;28;20227;-61
2020/12/10 10:02:32;;;;;;;19.40;13.10;;;4.80;99.90;;;;;;5111937;28;20246;-62
2020/12/10 10:04:58;;;;;;;20.53;12.33;;;4.90;99.90;;;;;;5114286;28;20199;-62
2020/12/10 10:07:24;;;;;;;12.07;8.50;;;5.00;99.90;;;;;;5114479;28;20208;-61
2020/12/10 10:09:51;;;;;;;11.83;7.83;;;4.90;99.90;;;;;;5114520;28;20224;-62
2020/12/10 10:12:17;;;;;;;12.90;8.97;;;4.90;99.90;;;;;;5114833;28;20199;-62
2020/12/10 10:14:43;;;;;;;10.27;7.37;;;4.90;99.90;;;;;;5113832;28;20563;-62
2020/12/10 10:17:10;;;;;;;8.80;5.73;;;5.10;99.90;;;;;;5114549;28;20628;-63
2020/12/10 10:19:38;;;;;;;10.23;7.20;;;5.20;99.90;;;;;;5114005;28;20231;-62
2020/12/10 10:22:04;;;;;;;10.10;7.30;;;5.30;99.90;;;;;;5114097;28;20226;-62
2020/12/10 10:24:31;;;;;;;11.07;7.20;;;5.30;99.90;;;;;;5114027;28;20208;-62
2020/12/10 10:26:58;;;;;;;10.10;6.93;;;5.30;99.90;;;;;;5113987;28;20698;-62
2020/12/10 10:29:24;;;;;;;12.97;6.37;;;5.50;99.90;;;;;;5113893;28;20616;-62
2020/12/10 10:31:51;;;;;;;8.97;6.40;;;5.70;99.90;;;;;;5114233;28;20200;-64
2020/12/10 10:34:20;;;;;;;8.73;6.10;;;5.90;99.90;;;;;;5114052;28;20598;-63
2020/12/10 10:36:48;;;;;;;7.60;5.77;;;6.20;99.90;;;;;;5114453;28;20203;-63
2020/12/10 10:39:14;;;;;;;5.37;4.63;;;6.50;99.90;;;;;;5113861;28;20211;-63
2020/12/10 10:41:41;;;;;;;7.63;5.00;;;6.70;99.90;;;;;;5114134;28;20219;-63
2020/12/10 10:44:08;;;;;;;7.10;5.37;;;6.80;99.90;;;;;;5113527;28;20221;-62
2020/12/10 10:46:34;;;;;;;6.60;4.90;;;6.80;99.90;;;;;;5114287;28;20208;-62
2020/12/10 10:49:00;;;;;;;7.10;5.27;;;6.80;99.90;;;;;;5113950;28;20580;-63
2020/12/10 10:51:28;;;;;;;8.87;6.37;;;6.80;99.90;;;;;;5114271;28;20586;-63
2020/12/10 10:53:54;;;;;;;8.07;5.90;;;6.90;99.90;;;;;;5113751;28;20578;-63
2020/12/10 10:56:21;;;;;;;7.73;5.57;;;6.90;99.90;;;;;;5114291;28;20199;-62
2020/12/10 10:58:47;;;;;;;8.00;6.27;;;6.90;99.90;;;;;;5114168;28;20550;-62
2020/12/10 11:01:13;;;;;;;7.43;5.80;;;6.90;99.90;;;;;;5114010;28;20236;-64
2020/12/10 11:03:40;;;;;;;7.83;5.90;;;7.00;99.90;;;;;;5113530;28;20819;-63
2020/12/10 11:06:07;;;;;;;6.73;4.93;;;7.10;99.90;;;;;;5114179;28;20670;-62
2020/12/10 11:08:34;;;;;;;8.07;5.60;;;7.10;99.90;;;;;;5113279;28;20204;-59
2020/12/10 11:11:00;;;;;;;9.30;6.27;;;6.80;99.90;;;;;;5114022;28;20231;-60
2020/12/10 11:13:26;;;;;;;7.27;5.33;;;6.50;99.90;;;;;;5113556;28;20856;-60
2020/12/10 11:15:52;;;;;;;8.60;6.10;;;6.30;99.90;;;;;;5113676;28;20203;-58
2020/12/10 11:18:18;;;;;;;8.63;5.70;;;6.20;99.90;;;;;;5113943;28;20215;-59
2020/12/10 11:20:45;;;;;;;9.27;6.20;;;6.10;99.90;;;;;;5113350;28;20227;-59
2020/12/10 11:23:12;;;;;;;8.77;6.03;;;6.20;99.90;;;;;;5113441;28;20706;-58
2020/12/10 11:25:39;;;;;;;7.10;5.77;;;6.30;99.90;;;;;;5113683;28;20457;-59
2020/12/10 11:28:05;;;;;;;8.23;6.20;;;6.40;99.90;;;;;;5113205;28;20210;-60
2020/12/10 11:30:32;;;;;;;8.37;6.27;;;6.40;99.90;;;;;;5112944;28;20227;-60
2020/12/10 11:32:58;;;;;;;10.13;6.47;;;6.50;99.90;;;;;;5112732;28;20208;-58
2020/12/10 11:35:24;;;;;;;7.63;5.10;;;6.40;99.90;;;;;;5112890;28;20256;-58
2020/12/10 11:37:55;;;;;;;8.10;6.00;;;6.40;99.90;;;;;;5112733;28;20207;-58
2020/12/10 11:40:21;;;;;;;8.53;6.40;;;6.50;99.90;;;;;;5113084;28;20254;-59
2020/12/10 11:42:49;;;;;;;7.77;5.77;;;6.70;99.90;;;;;;5112562;28;20220;-59
2020/12/10 11:45:15;;;;;;;7.73;5.77;;;6.80;99.90;;;;;;5111935;28;20261;-59
2020/12/10 11:47:42;;;;;;;8.10;5.70;;;6.90;99.90;;;;;;5112498;28;20200;-60
2020/12/10 11:50:08;;;;;;;7.63;5.87;;;6.90;99.90;;;;;;5112264;28;20240;-60
2020/12/10 11:52:34;;;;;;;9.13;6.10;;;7.00;99.90;;;;;;5112147;28;20209;-59
2020/12/10 11:55:00;;;;;;;8.73;6.40;;;7.00;99.90;;;;;;5112101;28;20678;-60
2020/12/10 11:57:26;;;;;;;9.23;6.47;;;7.20;99.90;;;;;;5112291;28;20214;-59
2020/12/10 11:59:53;;;;;;;9.30;6.33;;;7.10;99.90;;;;;;5111716;28;20239;-59
2020/12/10 12:02:20;;;;;;;7.77;6.20;;;7.10;99.90;;;;;;5112145;28;20698;-59
2020/12/10 12:04:46;;;;;;;10.93;6.80;;;7.20;99.90;;;;;;5111751;28;20219;-60
2020/12/10 12:07:12;;;;;;;10.40;6.70;;;7.20;99.90;;;;;;5112360;28;20214;-59
2020/12/10 12:09:38;;;;;;;8.57;6.30;;;7.30;99.90;;;;;;5112241;28;20272;-59
2020/12/10 12:12:04;;;;;;;8.40;6.57;;;7.50;99.90;;;;;;5112401;28;20196;-59
2020/12/10 12:14:30;;;;;;;9.57;7.00;;;7.60;99.90;;;;;;5111520;28;20218;-58
2020/12/10 12:16:57;;;;;;;9.63;7.20;;;7.70;99.90;;;;;;5112399;28;20484;-59
2020/12/10 12:19:24;;;;;;;8.17;6.77;;;7.50;99.90;;;;;;5111965;28;20690;-59
2020/12/10 12:21:50;;;;;;;9.30;7.13;;;7.50;99.90;;;;;;5112880;28;20219;-58
2020/12/10 12:24:16;;;;;;;10.50;7.20;;;7.60;99.90;;;;;;5111881;28;20203;-59
2020/12/10 12:26:42;;;;;;;11.00;7.17;;;7.70;99.90;;;;;;5111304;28;20234;-59
2020/12/10 12:29:08;;;;;;;7.93;6.43;;;7.90;99.90;;;;;;5111617;28;20215;-60
2020/12/10 12:31:38;;;;;;;10.57;7.47;;;8.00;99.90;;;;;;5111637;28;20729;-59
2020/12/10 12:34:05;;;;;;;10.10;7.60;;;8.00;99.90;;;;;;5111601;28;20226;-59
2020/12/10 12:36:31;;;;;;;12.27;9.07;;;8.10;99.90;;;;;;5111909;28;20203;-60
2020/12/10 12:38:57;;;;;;;9.23;7.13;;;8.10;99.90;;;;;;5111295;28;20200;-60
2020/12/10 12:41:27;;;;;;;9.20;6.93;;;8.20;99.90;;;;;;5111552;28;20227;-60